createdAt,value
2018-06-28T00:01:14.207Z,1.70
2018-06-28T00:03:46.177Z,1.80
2018-06-28T00:06:17.358Z,1.50
2018-06-28T00:08:48.541Z,2.03
2018-06-28T00:11:19.855Z,2.13
2018-06-28T00:13:51.057Z,2.17
2018-06-28T00:16:23.185Z,2.20
2018-06-28T00:18:55.027Z,2.37
2018-06-28T00:21:26.278Z,2.00
2018-06-28T00:23:57.659Z,2.47
2018-06-28T00:26:28.913Z,2.13
2018-06-28T00:29:00.662Z,2.03
2018-06-28T00:31:32.099Z,2.07
2018-06-28T00:34:03.382Z,1.80
2018-06-28T00:36:34.900Z,2.00
2018-06-28T00:39:08.393Z,2.03
2018-06-28T00:41:39.704Z,1.80
2018-06-28T00:44:11.650Z,1.90
2018-06-28T00:46:42.775Z,1.80
2018-06-28T00:49:14.004Z,1.80
2018-06-28T00:51:45.694Z,1.67
2018-06-28T00:54:17.158Z,2.00
2018-06-28T00:56:48.541Z,2.20
2018-06-28T00:59:19.899Z,2.13
2018-06-28T01:01:51.086Z,2.30
2018-06-28T01:04:22.254Z,1.80
2018-06-28T01:06:53.137Z,1.90
2018-06-28T01:09:24.171Z,2.20
2018-06-28T01:11:55.447Z,1.90
2018-06-28T01:14:27.031Z,2.00
2018-06-28T01:16:58.044Z,1.73
2018-06-28T01:19:29.152Z,2.20
2018-06-28T01:22:01.120Z,2.13
2018-06-28T01:24:32.283Z,2.00
2018-06-28T01:27:03.471Z,2.00
2018-06-28T01:29:34.591Z,2.00
2018-06-28T01:32:06.898Z,2.30
2018-06-28T01:34:37.786Z,2.00
2018-06-28T01:37:09.619Z,2.10
2018-06-28T01:39:40.783Z,1.90
2018-06-28T01:42:57.456Z,2.20
2018-06-28T01:45:28.733Z,1.90
2018-06-28T01:47:59.958Z,2.10
2018-06-28T01:50:32.259Z,1.93
2018-06-28T01:53:03.231Z,1.97
2018-06-28T01:55:34.257Z,2.37
2018-06-28T01:58:05.546Z,2.10
2018-06-28T02:00:37.403Z,2.10
2018-06-28T02:03:08.487Z,2.17
2018-06-28T02:05:41.029Z,2.57
2018-06-28T02:08:12.167Z,1.70
2018-06-28T02:10:43.320Z,1.70
2018-06-28T02:13:14.645Z,2.00
2018-06-28T02:15:46.313Z,2.27
2018-06-28T02:18:17.314Z,2.40
2018-06-28T02:20:48.544Z,2.03
2018-06-28T02:23:19.783Z,2.50
2018-06-28T02:25:51.075Z,2.37
2018-06-28T02:28:22.146Z,2.93
2018-06-28T02:30:52.683Z,3.27
2018-06-28T02:33:23.725Z,2.17
2018-06-28T02:35:54.641Z,2.73
2018-06-28T02:38:25.836Z,2.33
2018-06-28T02:40:57.229Z,2.33
2018-06-28T02:43:29.079Z,1.80
2018-06-28T02:46:00.106Z,2.10
2018-06-28T02:48:31.114Z,2.20
2018-06-28T02:51:02.154Z,1.97
2018-06-28T02:53:34.428Z,2.70
2018-06-28T02:56:05.678Z,2.57
2018-06-28T02:58:37.674Z,2.70
2018-06-28T03:01:09.827Z,2.30
2018-06-28T03:03:40.826Z,1.90
2018-06-28T03:06:11.740Z,1.93
2018-06-28T03:08:43.071Z,1.90
2018-06-28T03:11:13.999Z,1.90
2018-06-28T03:13:45.226Z,2.10
2018-06-28T03:16:16.193Z,2.27
2018-06-28T03:18:47.831Z,2.43
2018-06-28T03:21:18.913Z,2.40
2018-06-28T03:23:50.241Z,2.17
2018-06-28T03:26:21.596Z,3.17
2018-06-28T03:28:52.652Z,2.43
2018-06-28T03:31:23.990Z,2.70
2018-06-28T03:33:55.377Z,2.60
2018-06-28T03:36:26.430Z,2.57
2018-06-28T03:38:57.287Z,2.63
2018-06-28T03:41:28.501Z,2.57
2018-06-28T03:43:59.366Z,2.20
2018-06-28T03:46:30.431Z,2.37
2018-06-28T03:49:01.307Z,2.13
2018-06-28T03:51:32.488Z,2.13
2018-06-28T03:54:04.629Z,2.10
2018-06-28T03:56:35.830Z,2.07
2018-06-28T03:59:09.172Z,2.33
2018-06-28T04:01:40.459Z,2.30
2018-06-28T04:04:11.713Z,2.50
2018-06-28T04:06:42.745Z,2.43
2018-06-28T04:09:13.716Z,2.50
2018-06-28T04:11:46.750Z,2.37
2018-06-28T04:14:18.802Z,2.77
2018-06-28T04:16:50.667Z,2.47
2018-06-28T04:19:22.581Z,2.40
2018-06-28T04:21:54.527Z,3.90
2018-06-28T04:24:25.468Z,2.57
2018-06-28T04:26:57.084Z,2.30
2018-06-28T04:29:28.068Z,2.60
2018-06-28T04:31:59.129Z,2.60
2018-06-28T04:34:30.259Z,2.70
2018-06-28T04:37:01.520Z,2.80
2018-06-28T04:39:32.813Z,2.53
2018-06-28T04:42:03.820Z,2.33
2018-06-28T04:44:34.864Z,2.40
2018-06-28T04:47:05.087Z,2.50
2018-06-28T04:49:36.207Z,2.60
2018-06-28T04:52:07.263Z,3.17
2018-06-28T04:54:38.171Z,3.23
2018-06-28T04:57:09.336Z,3.70
2018-06-28T04:59:40.086Z,4.60
2018-06-28T05:02:10.812Z,5.57
2018-06-28T05:04:41.971Z,5.40
2018-06-28T05:07:13.929Z,5.87
2018-06-28T05:09:44.857Z,5.27
2018-06-28T05:12:16.227Z,6.23
2018-06-28T05:14:48.642Z,4.53
2018-06-28T05:17:20.003Z,3.77
2018-06-28T05:19:51.389Z,3.23
2018-06-28T05:22:22.532Z,3.00
2018-06-28T05:24:53.611Z,2.73
2018-06-28T05:27:24.778Z,3.10
2018-06-28T05:29:55.017Z,2.50
2018-06-28T05:32:26.028Z,2.43
2018-06-28T05:34:57.006Z,2.70
2018-06-28T05:37:28.115Z,3.97
2018-06-28T05:39:59.566Z,10.93
2018-06-28T05:42:30.592Z,3.43
2018-06-28T05:45:01.670Z,3.00
2018-06-28T05:47:32.763Z,3.00
2018-06-28T05:50:04.203Z,3.10
2018-06-28T05:52:35.348Z,2.93
2018-06-28T05:55:06.693Z,3.33
2018-06-28T05:57:37.782Z,5.90
2018-06-28T06:00:10.177Z,3.40
2018-06-28T06:02:41.492Z,2.70
2018-06-28T06:05:12.553Z,2.80
2018-06-28T06:07:43.710Z,3.00
2018-06-28T06:10:15.043Z,3.40
2018-06-28T06:12:46.748Z,3.00
2018-06-28T06:15:18.435Z,6.03
2018-06-28T06:17:50.627Z,2.50
2018-06-28T06:20:23.086Z,2.40
2018-06-28T06:22:54.257Z,2.57
2018-06-28T06:25:27.378Z,2.53
2018-06-28T06:27:58.458Z,2.30
2018-06-28T06:30:29.479Z,2.43
2018-06-28T06:33:00.547Z,2.30
2018-06-28T06:35:32.189Z,2.30
2018-06-28T06:38:04.035Z,2.50
2018-06-28T06:40:35.477Z,2.30
2018-06-28T06:43:06.972Z,1.90
2018-06-28T06:45:37.348Z,2.10
2018-06-28T06:48:09.394Z,2.20
2018-06-28T06:50:41.166Z,2.03
2018-06-28T06:53:13.343Z,2.10
2018-06-28T06:55:43.983Z,1.50
2018-06-28T06:58:15.372Z,1.57
2018-06-28T07:00:46.883Z,1.70
2018-06-28T07:03:20.398Z,1.90
2018-06-28T07:05:52.686Z,1.97
2018-06-28T07:08:26.490Z,1.40
2018-06-28T07:10:57.882Z,3.07
2018-06-28T07:13:29.912Z,1.53
2018-06-28T07:16:03.934Z,4.87
2018-06-28T07:18:35.564Z,3.73
2018-06-28T07:21:07.403Z,8.50
2018-06-28T07:23:38.910Z,3.60
2018-06-28T07:26:11.438Z,1.87
2018-06-28T07:28:42.748Z,2.63
2018-06-28T07:31:15.562Z,1.83
2018-06-28T07:33:46.846Z,1.97
2018-06-28T07:36:18.454Z,1.80
2018-06-28T07:38:50.363Z,1.47
2018-06-28T07:41:21.776Z,1.90
2018-06-28T07:43:53.282Z,1.67
2018-06-28T07:46:24.700Z,1.50
2018-06-28T07:48:56.202Z,1.90
2018-06-28T07:51:29.511Z,1.60
2018-06-28T07:54:01.503Z,1.50
2018-06-28T07:56:32.482Z,1.80
2018-06-28T07:59:04.356Z,1.60
2018-06-28T08:01:36.503Z,1.60
2018-06-28T08:04:08.340Z,1.30
2018-06-28T08:06:41.133Z,1.30
2018-06-28T08:09:12.397Z,1.37
2018-06-28T08:11:44.925Z,1.40
2018-06-28T08:14:16.309Z,1.57
2018-06-28T08:16:47.757Z,1.30
2018-06-28T08:19:19.428Z,1.70
2018-06-28T08:21:51.010Z,1.47
2018-06-28T08:24:22.448Z,1.40
2018-06-28T08:26:53.589Z,1.13
2018-06-28T08:29:24.599Z,1.50
2018-06-28T08:31:56.029Z,1.30
2018-06-28T08:34:28.350Z,1.20
2018-06-28T08:37:00.521Z,1.30
2018-06-28T08:39:32.709Z,1.20
2018-06-28T08:42:04.621Z,1.20
2018-06-28T08:44:37.055Z,1.17
2018-06-28T08:47:10.230Z,1.20
2018-06-28T08:49:42.403Z,1.30
2018-06-28T08:52:16.133Z,1.50
2018-06-28T08:54:51.839Z,1.37
2018-06-28T08:57:26.861Z,1.20
2018-06-28T08:59:58.111Z,1.40
2018-06-28T09:02:29.898Z,1.40
2018-06-28T09:05:02.119Z,1.33
2018-06-28T09:07:35.076Z,1.47
2018-06-28T09:10:06.714Z,1.40
2018-06-28T09:12:38.608Z,1.33
2018-06-28T09:15:09.937Z,1.37
2018-06-28T09:17:41.032Z,1.40
2018-06-28T09:20:13.764Z,1.40
2018-06-28T09:22:46.262Z,1.60
2018-06-28T09:25:19.195Z,1.40
2018-06-28T09:27:50.766Z,1.20
2018-06-28T09:30:24.062Z,1.20
2018-06-28T09:32:55.809Z,1.60
2018-06-28T09:35:29.024Z,1.40
2018-06-28T09:38:02.196Z,1.60
2018-06-28T09:40:36.971Z,1.40
2018-06-28T09:43:09.690Z,1.53
2018-06-28T09:45:41.898Z,1.23
2018-06-28T09:48:14.016Z,1.47
2018-06-28T09:50:47.358Z,1.20
2018-06-28T09:53:19.150Z,1.30
2018-06-28T09:55:50.632Z,1.27
2018-06-28T09:58:23.176Z,1.20
2018-06-28T10:00:54.493Z,1.53
2018-06-28T10:03:26.619Z,1.20
2018-06-28T10:06:00.065Z,1.20
2018-06-28T10:08:32.520Z,1.30
2018-06-28T10:11:05.264Z,1.50
2018-06-28T10:13:38.169Z,1.30
2018-06-28T10:16:09.384Z,1.40
2018-06-28T10:18:41.652Z,1.40
2018-06-28T10:21:14.750Z,1.30
2018-06-28T10:23:46.400Z,1.10
2018-06-28T10:26:18.198Z,1.17
2018-06-28T10:28:51.240Z,1.07
2018-06-28T10:31:24.749Z,1.00
2018-06-28T10:33:59.750Z,1.10
2018-06-28T10:36:32.174Z,1.13
2018-06-28T10:39:04.807Z,0.90
2018-06-28T10:41:37.344Z,1.00
2018-06-28T10:44:12.439Z,1.00
2018-06-28T10:46:45.641Z,1.17
2018-06-28T10:49:18.373Z,1.00
2018-06-28T10:51:49.709Z,1.10
2018-06-28T10:54:23.976Z,0.90
2018-06-28T10:56:58.192Z,1.00
2018-06-28T10:59:30.937Z,0.90
2018-06-28T11:02:05.495Z,1.00
2018-06-28T11:04:37.802Z,1.20
2018-06-28T11:07:10.616Z,1.00
2018-06-28T11:09:42.560Z,1.13
2018-06-28T11:12:15.161Z,1.23
2018-06-28T11:14:48.993Z,1.10
2018-06-28T11:17:20.997Z,1.00
2018-06-28T11:19:53.684Z,1.20
2018-06-28T11:22:24.611Z,1.10
2018-06-28T11:24:56.444Z,1.50
2018-06-28T11:27:29.844Z,1.60
2018-06-28T11:30:02.174Z,1.10
2018-06-28T11:32:34.023Z,1.20
2018-06-28T11:35:06.318Z,1.20
2018-06-28T11:37:41.361Z,1.47
2018-06-28T11:40:16.401Z,1.30
2018-06-28T11:42:49.942Z,1.00
2018-06-28T11:45:24.220Z,1.20
2018-06-28T11:47:56.352Z,1.10
2018-06-28T11:50:29.683Z,1.23
2018-06-28T11:53:05.589Z,1.30
2018-06-28T11:55:37.098Z,1.10
2018-06-28T11:58:09.638Z,1.50
2018-06-28T12:00:41.878Z,1.23
2018-06-28T12:03:14.656Z,1.33
2018-06-28T12:05:46.227Z,1.30
2018-06-28T12:08:18.664Z,1.70
2018-06-28T12:10:51.051Z,1.30
2018-06-28T12:13:22.880Z,1.30
2018-06-28T12:15:55.896Z,1.10
2018-06-28T12:18:28.294Z,1.20
2018-06-28T12:21:00.705Z,1.43
2018-06-28T12:23:34.420Z,1.43
2018-06-28T12:26:06.102Z,1.17
2018-06-28T12:28:38.102Z,1.20
2018-06-28T12:31:11.650Z,1.40
2018-06-28T12:33:43.297Z,1.27
2018-06-28T12:36:15.304Z,1.20
2018-06-28T12:38:47.752Z,1.07
2018-06-28T12:41:21.612Z,1.27
2018-06-28T12:43:53.069Z,1.30
2018-06-28T12:48:16.411Z,1.40
2018-06-28T12:50:48.547Z,1.20
2018-06-28T12:53:21.406Z,1.30
2018-06-28T12:56:27.981Z,1.40
2018-06-28T12:59:04.000Z,1.40
2018-06-28T13:01:35.606Z,1.37
2018-06-28T13:04:07.693Z,1.37
2018-06-28T13:06:39.481Z,1.20
2018-06-28T13:09:14.607Z,1.20
2018-06-28T13:11:46.939Z,1.30
2018-06-28T13:14:18.710Z,1.27
2018-06-28T13:16:50.267Z,1.33
2018-06-28T13:19:21.941Z,1.20
2018-06-28T13:21:53.273Z,1.10
2018-06-28T13:24:25.584Z,1.23
2018-06-28T13:26:58.784Z,1.43
2018-06-28T13:29:30.359Z,4.53
2018-06-28T13:32:01.829Z,1.40
2018-06-28T13:34:33.315Z,1.30
2018-06-28T13:37:04.575Z,1.30
2018-06-28T13:39:37.155Z,1.27
2018-06-28T13:42:10.467Z,1.10
2018-06-28T13:44:41.920Z,1.33
2018-06-28T13:47:14.097Z,1.33
2018-06-28T13:49:45.789Z,1.20
2018-06-28T13:52:22.656Z,1.27
2018-06-28T13:54:57.122Z,1.37
2018-06-28T13:57:32.162Z,1.10
2018-06-28T14:00:05.579Z,1.30
2018-06-28T14:02:37.474Z,1.10
2018-06-28T14:05:10.651Z,1.00
2018-06-28T14:07:44.575Z,1.17
2018-06-28T14:10:16.623Z,1.20
2018-06-28T14:12:47.950Z,1.17
2018-06-28T14:15:19.533Z,1.00
2018-06-28T14:17:51.774Z,1.30
2018-06-28T14:20:23.341Z,1.10
2018-06-28T14:22:54.872Z,1.00
2018-06-28T14:25:27.745Z,1.17
2018-06-28T14:27:59.376Z,1.73
2018-06-28T14:30:31.619Z,1.10
2018-06-28T14:33:03.016Z,0.80
2018-06-28T14:35:34.414Z,1.10
2018-06-28T14:38:06.774Z,1.10
2018-06-28T14:40:39.379Z,1.10
2018-06-28T14:43:11.876Z,1.03
2018-06-28T14:45:44.042Z,1.10
2018-06-28T14:48:15.952Z,1.23
2018-06-28T14:50:47.529Z,1.40
2018-06-28T14:53:18.927Z,1.27
2018-06-28T14:55:51.442Z,1.23
2018-06-28T14:58:23.773Z,1.30
2018-06-28T15:00:55.070Z,1.20
2018-06-28T15:03:26.439Z,1.13
2018-06-28T15:05:58.541Z,1.40
2018-06-28T15:08:30.219Z,1.40
2018-06-28T15:11:02.256Z,1.30
2018-06-28T15:13:34.537Z,1.67
2018-06-28T15:16:06.095Z,1.20
2018-06-28T15:18:37.486Z,1.10
2018-06-28T15:21:09.009Z,1.33
2018-06-28T15:23:41.055Z,1.73
2018-06-28T15:26:12.774Z,2.40
2018-06-28T15:28:45.170Z,3.10
2018-06-28T15:31:17.370Z,1.13
2018-06-28T15:33:49.938Z,1.30
2018-06-28T15:36:22.545Z,1.40
2018-06-28T15:38:53.790Z,1.20
2018-06-28T15:41:25.139Z,1.60
2018-06-28T15:43:56.987Z,1.60
2018-06-28T15:46:29.373Z,1.57
2018-06-28T15:49:01.142Z,1.60
2018-06-28T15:51:33.156Z,1.37
2018-06-28T15:54:06.184Z,1.50
2018-06-28T15:56:39.791Z,1.47
2018-06-28T15:59:11.517Z,1.50
2018-06-28T16:01:44.083Z,2.00
2018-06-28T16:04:15.574Z,1.60
2018-06-28T16:06:47.412Z,1.40
2018-06-28T16:09:18.745Z,1.53
2018-06-28T16:11:51.677Z,1.77
2018-06-28T16:14:25.008Z,1.33
2018-06-28T16:16:57.848Z,1.20
2018-06-28T16:19:29.257Z,1.30
2018-06-28T16:22:00.863Z,1.60
2018-06-28T16:24:33.090Z,1.50
2018-06-28T16:27:04.677Z,1.47
2018-06-28T16:29:37.553Z,1.40
2018-06-28T16:32:10.906Z,1.77
2018-06-28T16:34:42.781Z,1.70
2018-06-28T16:37:14.744Z,1.73
2018-06-28T16:39:46.012Z,1.87
2018-06-28T16:42:17.171Z,2.40
2018-06-28T16:44:48.854Z,1.60
2018-06-28T16:47:20.924Z,1.80
2018-06-28T16:49:53.381Z,1.83
2018-06-28T16:52:25.555Z,1.50
2018-06-28T16:54:57.206Z,1.63
2018-06-28T16:57:28.771Z,1.73
2018-06-28T17:00:00.685Z,1.53
2018-06-28T17:02:32.565Z,1.83
2018-06-28T17:05:05.135Z,1.60
2018-06-28T17:07:37.359Z,1.93
2018-06-28T17:10:09.888Z,1.80
2018-06-28T17:12:43.781Z,1.90
2018-06-28T17:15:15.893Z,1.63
2018-06-28T17:17:48.130Z,2.30
2018-06-28T17:20:20.819Z,2.10
2018-06-28T17:22:52.619Z,1.93
2018-06-28T17:25:24.487Z,1.60
2018-06-28T17:27:57.538Z,1.80
2018-06-28T17:30:29.358Z,1.60
2018-06-28T17:33:02.838Z,1.80
2018-06-28T17:35:35.570Z,1.70
2018-06-28T17:38:07.815Z,1.60
2018-06-28T17:40:39.835Z,1.90
2018-06-28T17:43:13.350Z,1.80
2018-06-28T17:45:44.904Z,1.80
2018-06-28T17:48:17.871Z,1.90
2018-06-28T17:50:53.389Z,1.80
2018-06-28T17:53:25.590Z,1.70
2018-06-28T17:55:57.667Z,1.70
2018-06-28T17:58:31.420Z,1.80
2018-06-28T18:01:05.089Z,2.43
2018-06-28T18:03:37.308Z,1.70
2018-06-28T18:06:10.454Z,1.70
2018-06-28T18:08:44.605Z,2.10
2018-06-28T18:11:19.028Z,1.77
2018-06-28T18:13:55.023Z,2.07
2018-06-28T18:16:29.537Z,1.70
2018-06-28T18:19:02.544Z,2.00
2018-06-28T18:21:35.730Z,1.70
2018-06-28T18:24:10.152Z,1.90
2018-06-28T18:26:43.117Z,2.00
2018-06-28T18:29:18.336Z,1.80
2018-06-28T18:31:51.580Z,1.87
2018-06-28T18:34:24.977Z,1.60
2018-06-28T18:36:58.883Z,2.00
2018-06-28T18:39:32.117Z,1.90
2018-06-28T18:42:05.194Z,2.00
2018-06-28T18:44:39.380Z,2.10
2018-06-28T18:47:12.584Z,2.27
2018-06-28T18:49:46.037Z,2.10
2018-06-28T18:52:19.656Z,2.20
2018-06-28T18:54:54.496Z,2.20
2018-06-28T18:57:28.798Z,2.00
2018-06-28T19:00:01.984Z,1.93
2018-06-28T19:02:36.642Z,1.87
2018-06-28T19:05:14.195Z,1.83
2018-06-28T19:07:47.400Z,1.97
2018-06-28T19:10:26.291Z,2.03
2018-06-28T19:13:00.799Z,2.00
2018-06-28T19:15:38.581Z,1.80
2018-06-28T19:18:13.098Z,2.10
2018-06-28T19:20:52.835Z,2.00
2018-06-28T19:23:31.818Z,1.90
2018-06-28T19:26:06.368Z,1.90
2018-06-28T19:28:44.050Z,1.57
2018-06-28T19:31:23.033Z,1.60
2018-06-28T19:33:57.791Z,2.00
2018-06-28T19:36:32.852Z,1.87
2018-06-28T19:40:16.289Z,1.70
2018-06-28T19:42:56.613Z,1.90
2018-06-28T19:45:31.390Z,2.10
2018-06-28T19:48:05.730Z,1.70
2018-06-28T19:50:45.137Z,2.00
2018-06-28T19:53:21.134Z,1.93
2018-06-28T19:55:56.382Z,2.00
2018-06-28T19:58:31.341Z,1.77
2018-06-28T20:01:10.475Z,1.70
2018-06-28T20:03:48.868Z,1.90
2018-06-28T20:06:38.454Z,1.93
2018-06-28T20:09:12.807Z,2.00
2018-06-28T20:11:46.805Z,1.73
2018-06-28T20:14:25.993Z,1.67
2018-06-28T20:18:08.582Z,1.63
2018-06-28T20:20:42.805Z,3.00
2018-06-28T20:23:16.982Z,2.13
2018-06-28T20:25:53.297Z,2.03
2018-06-28T20:28:31.255Z,2.00
2018-06-28T20:31:14.013Z,2.30
2018-06-28T20:33:57.379Z,2.07
2018-06-28T20:36:30.621Z,2.20
2018-06-28T20:39:08.015Z,2.30
2018-06-28T20:41:44.924Z,2.27
2018-06-28T20:44:20.941Z,2.40
2018-06-28T20:46:58.422Z,2.00
2018-06-28T20:49:32.088Z,2.20
2018-06-28T20:52:05.208Z,2.73
2018-06-28T20:54:38.393Z,2.10
2018-06-28T20:57:13.024Z,2.13
2018-06-28T20:59:47.443Z,2.20
2018-06-28T21:02:21.596Z,1.87
2018-06-28T21:04:53.985Z,2.20
2018-06-28T21:07:25.816Z,2.40
2018-06-28T21:09:58.459Z,2.53
2018-06-28T21:12:31.070Z,2.90
2018-06-28T21:15:02.559Z,2.57
2018-06-28T21:17:34.023Z,2.73
2018-06-28T21:20:06.299Z,3.03
2018-06-28T21:22:38.576Z,2.70
2018-06-28T21:25:11.668Z,2.33
2018-06-28T21:27:43.940Z,3.60
2018-06-28T21:30:15.699Z,3.20
2018-06-28T21:32:48.149Z,3.10
2018-06-28T21:35:21.591Z,2.93
2018-06-28T21:37:54.691Z,2.53
2018-06-28T21:40:27.870Z,2.43
2018-06-28T21:43:01.611Z,2.57
2018-06-28T21:45:33.532Z,2.30
2018-06-28T21:48:06.577Z,2.50
2018-06-28T21:50:38.522Z,2.20
2018-06-28T21:53:11.046Z,2.13
2018-06-28T21:55:43.216Z,2.30
2018-06-28T21:58:15.202Z,2.20
2018-06-28T22:00:48.532Z,2.23
2018-06-28T22:03:20.626Z,2.10
2018-06-28T22:05:53.466Z,2.57
2018-06-28T22:08:24.515Z,2.30
2018-06-28T22:10:55.047Z,2.23
2018-06-28T22:13:26.213Z,2.47
2018-06-28T22:15:57.076Z,2.40
2018-06-28T22:18:28.998Z,2.30
2018-06-28T22:21:00.449Z,2.30
2018-06-28T22:23:31.561Z,2.40
2018-06-28T22:26:03.330Z,3.60
2018-06-28T22:28:34.910Z,3.17
2018-06-28T22:31:06.528Z,2.90
2018-06-28T22:33:38.284Z,2.73
2018-06-28T22:36:09.858Z,2.60
2018-06-28T22:38:41.154Z,2.70
2018-06-28T22:41:13.356Z,2.67
2018-06-28T22:43:44.607Z,2.77
2018-06-28T22:46:15.660Z,2.90
2018-06-28T22:48:47.746Z,3.00
2018-06-28T22:51:19.915Z,3.17
2018-06-28T22:53:51.567Z,2.90
2018-06-28T22:56:22.771Z,3.40
2018-06-28T22:58:54.815Z,3.20
2018-06-28T23:01:26.127Z,2.73
2018-06-28T23:03:58.261Z,3.00
2018-06-28T23:06:30.598Z,3.43
2018-06-28T23:09:01.775Z,3.40
2018-06-28T23:11:32.923Z,2.97
2018-06-28T23:14:04.149Z,3.07
2018-06-28T23:16:34.837Z,3.10
2018-06-28T23:19:05.996Z,2.90
2018-06-28T23:21:37.001Z,2.97
2018-06-28T23:24:08.075Z,3.50
2018-06-28T23:26:39.177Z,3.17
2018-06-28T23:29:11.286Z,3.73
2018-06-28T23:31:42.362Z,3.30
2018-06-28T23:34:13.307Z,3.30
2018-06-28T23:36:44.737Z,3.70
2018-06-28T23:39:16.205Z,4.47
2018-06-28T23:41:48.072Z,3.87
2018-06-28T23:44:19.258Z,3.30
2018-06-28T23:46:51.649Z,3.53
2018-06-28T23:49:22.942Z,3.50
2018-06-28T23:51:54.039Z,3.63
2018-06-28T23:54:25.227Z,3.43
2018-06-28T23:56:56.769Z,4.03
2018-06-28T23:59:29.383Z,3.60
